createdAt,value
2023-02-02T00:03:31.989Z,3.65
2023-02-02T00:07:24.816Z,6.43
2023-02-02T00:11:18.953Z,5.30
2023-02-02T00:15:11.589Z,5.07
2023-02-02T00:19:17.554Z,4.50
2023-02-02T00:23:10.186Z,4.78
2023-02-02T00:27:02.815Z,8.23
2023-02-02T00:30:55.684Z,6.38
2023-02-02T00:34:48.373Z,4.20
2023-02-02T00:38:41.183Z,4.72
2023-02-02T00:42:33.985Z,4.00
2023-02-02T00:46:26.849Z,5.03
2023-02-02T00:50:21.658Z,5.55
2023-02-02T00:54:16.937Z,4.35
2023-02-02T00:58:09.599Z,4.15
2023-02-02T01:02:02.574Z,4.93
2023-02-02T01:05:55.360Z,5.80
2023-02-02T01:09:48.260Z,3.83
2023-02-02T01:13:41.046Z,4.20
2023-02-02T01:17:33.995Z,3.97
2023-02-02T01:21:26.574Z,2.95
2023-02-02T01:25:19.314Z,7.10
2023-02-02T01:29:12.382Z,4.18
2023-02-02T01:33:05.092Z,3.95
2023-02-02T01:36:57.696Z,1.23
2023-02-02T01:40:56.281Z,1.83
2023-02-02T01:45:07.064Z,1.52
2023-02-02T01:49:06.057Z,2.80
2023-02-02T01:53:01.133Z,1.08
2023-02-02T01:56:59.006Z,2.08
2023-02-02T02:00:52.153Z,0.80
2023-02-02T02:04:44.982Z,1.25
2023-02-02T02:08:47.584Z,1.05
2023-02-02T02:12:40.260Z,0.90
2023-02-02T02:16:51.688Z,1.25
2023-02-02T02:21:42.470Z,1.10
2023-02-02T02:26:12.488Z,1.08
2023-02-02T02:30:33.795Z,0.98
2023-02-02T02:34:48.194Z,1.92
2023-02-02T02:38:43.878Z,2.30
2023-02-02T02:42:44.153Z,0.90
2023-02-02T02:46:37.844Z,2.03
2023-02-02T02:50:30.532Z,1.50
2023-02-02T02:54:26.486Z,3.05
2023-02-02T02:58:25.105Z,1.48
2023-02-02T03:02:29.131Z,2.15
2023-02-02T03:06:29.392Z,3.33
2023-02-02T03:10:26.931Z,1.40
2023-02-02T03:14:19.498Z,3.03
2023-02-02T03:18:14.871Z,1.20
2023-02-02T03:22:07.523Z,2.75
2023-02-02T03:26:00.358Z,1.65
2023-02-02T03:29:53.103Z,1.95
2023-02-02T03:33:45.909Z,2.35
2023-02-02T03:37:38.683Z,1.13
2023-02-02T03:41:31.350Z,3.53
2023-02-02T03:45:24.288Z,2.13
2023-02-02T03:49:17.030Z,2.20
2023-02-02T03:53:10.153Z,2.33
2023-02-02T03:57:02.703Z,3.22
2023-02-02T04:01:03.430Z,2.20
2023-02-02T04:04:56.510Z,2.83
2023-02-02T04:08:49.202Z,2.92
2023-02-02T04:12:41.712Z,0.95
2023-02-02T04:16:37.344Z,1.80
2023-02-02T04:20:30.093Z,2.17
2023-02-02T04:24:22.686Z,4.35
2023-02-02T04:28:15.409Z,3.20
2023-02-02T04:32:08.464Z,2.03
2023-02-02T04:36:01.203Z,2.97
2023-02-02T04:39:55.575Z,2.25
2023-02-02T04:43:48.357Z,1.67
2023-02-02T04:47:40.995Z,2.40
2023-02-02T04:51:35.282Z,2.03
2023-02-02T04:55:27.838Z,1.75
2023-02-02T04:59:20.381Z,4.30
2023-02-02T05:03:13.123Z,2.75
2023-02-02T05:07:05.970Z,2.97
2023-02-02T05:10:58.722Z,3.70
2023-02-02T05:14:51.406Z,1.98
2023-02-02T05:18:48.440Z,1.65
2023-02-02T05:22:42.070Z,3.25
2023-02-02T05:26:35.333Z,5.50
2023-02-02T05:30:28.039Z,2.03
2023-02-02T05:34:21.293Z,1.70
2023-02-02T05:38:14.486Z,5.70
2023-02-02T05:42:07.379Z,2.55
2023-02-02T05:46:00.230Z,5.15
2023-02-02T05:49:53.037Z,4.30
2023-02-02T05:53:45.905Z,2.25
2023-02-02T05:57:38.630Z,2.85
2023-02-02T06:01:31.430Z,3.80
2023-02-02T06:05:24.410Z,2.35
2023-02-02T06:09:17.619Z,1.88
2023-02-02T06:13:10.719Z,4.65
2023-02-02T06:17:03.325Z,3.22
2023-02-02T06:20:59.645Z,2.97
2023-02-02T06:24:53.663Z,3.05
2023-02-02T06:28:51.797Z,3.80
2023-02-02T06:32:44.592Z,3.78
2023-02-02T06:36:37.274Z,3.55
2023-02-02T06:40:30.058Z,3.83
2023-02-02T06:44:22.793Z,4.90
2023-02-02T06:48:15.544Z,3.50
2023-02-02T06:52:08.427Z,4.15
2023-02-02T06:56:04.380Z,4.70
2023-02-02T06:59:57.300Z,1.45
2023-02-02T07:03:51.459Z,2.35
2023-02-02T07:07:44.190Z,3.88
2023-02-02T07:11:38.850Z,2.85
2023-02-02T07:15:36.021Z,1.90
2023-02-02T07:19:28.878Z,1.95
2023-02-02T07:23:22.019Z,3.90
2023-02-02T07:27:14.602Z,2.20
2023-02-02T07:31:15.493Z,2.25
2023-02-02T07:35:08.524Z,4.10
2023-02-02T07:39:04.461Z,2.55
2023-02-02T07:43:00.741Z,3.25
2023-02-02T07:46:53.444Z,3.08
2023-02-02T07:50:46.233Z,3.50
2023-02-02T07:54:38.834Z,2.55
2023-02-02T07:58:31.484Z,5.72
2023-02-02T08:02:24.364Z,3.95
2023-02-02T08:06:22.636Z,2.22
2023-02-02T08:10:15.487Z,3.53
2023-02-02T08:14:08.499Z,2.00
2023-02-02T08:18:01.156Z,3.28
2023-02-02T08:21:53.752Z,2.03
2023-02-02T08:25:46.448Z,3.40
2023-02-02T08:29:39.729Z,3.67
2023-02-02T08:33:32.406Z,4.50
2023-02-02T08:37:25.171Z,4.15
2023-02-02T08:41:22.273Z,3.85
2023-02-02T08:46:12.662Z,3.78
2023-02-02T08:49:27.975Z,2.38
2023-02-02T08:53:21.177Z,4.68
2023-02-02T08:57:13.783Z,3.05
2023-02-02T09:01:15.009Z,2.70
2023-02-02T09:05:07.758Z,4.43
2023-02-02T09:09:00.653Z,5.55
2023-02-02T09:12:53.545Z,4.88
2023-02-02T09:16:46.238Z,2.90
2023-02-02T09:20:39.352Z,3.30
2023-02-02T09:24:32.254Z,3.80
2023-02-02T09:28:24.952Z,3.58
2023-02-02T09:32:17.638Z,7.22
2023-02-02T09:36:13.673Z,7.20
2023-02-02T09:40:07.096Z,6.97
2023-02-02T09:44:05.774Z,7.80
2023-02-02T09:48:09.220Z,4.22
2023-02-02T09:52:16.481Z,10.25
2023-02-02T09:56:32.119Z,3.65
2023-02-02T10:00:37.469Z,5.82
2023-02-02T10:04:35.624Z,5.00
2023-02-02T10:08:37.655Z,4.05
2023-02-02T10:12:47.844Z,3.17
2023-02-02T10:16:41.363Z,2.72
2023-02-02T10:20:45.058Z,4.20
2023-02-02T10:24:37.950Z,4.93
2023-02-02T10:29:01.295Z,6.03
2023-02-02T10:33:10.204Z,2.95
2023-02-02T10:37:28.530Z,5.60
2023-02-02T10:41:53.837Z,4.55
2023-02-02T10:45:50.490Z,7.18
2023-02-02T10:49:43.309Z,5.63
2023-02-02T10:53:36.337Z,7.20
2023-02-02T10:57:38.189Z,5.85
2023-02-02T11:01:31.128Z,7.43
2023-02-02T11:05:44.753Z,5.68
2023-02-02T11:09:41.032Z,7.90
2023-02-02T11:13:41.757Z,4.97
2023-02-02T11:17:35.503Z,6.78
2023-02-02T11:21:38.581Z,6.10
2023-02-02T11:25:36.481Z,3.60
2023-02-02T11:29:42.523Z,4.28
2023-02-02T11:33:36.563Z,4.82
2023-02-02T11:37:30.688Z,4.07
2023-02-02T11:41:23.676Z,5.55
2023-02-02T11:45:18.845Z,8.70
2023-02-02T11:49:19.274Z,4.63
2023-02-02T11:53:27.315Z,4.43
2023-02-02T11:57:25.434Z,3.35
2023-02-02T12:01:30.824Z,9.63
2023-02-02T12:05:32.867Z,6.10
2023-02-02T12:09:26.277Z,3.33
2023-02-02T12:13:54.779Z,2.50
2023-02-02T12:17:48.705Z,5.15
2023-02-02T12:22:13.059Z,2.33
2023-02-02T12:26:22.143Z,6.07
2023-02-02T12:30:17.613Z,6.68
2023-02-02T12:34:20.814Z,5.05
2023-02-02T12:38:39.406Z,5.13
2023-02-02T12:43:11.336Z,5.90
2023-02-02T12:47:22.308Z,10.43
2023-02-02T12:51:38.022Z,12.23
2023-02-02T12:56:12.549Z,47.67
2023-02-02T13:00:17.741Z,18.33
2023-02-02T13:08:48.411Z,18.05
2023-02-02T13:12:54.328Z,18.90
2023-02-02T13:16:51.643Z,7.38
2023-02-02T13:20:48.853Z,6.88
2023-02-02T13:24:46.216Z,10.00
2023-02-02T13:28:45.485Z,4.95
2023-02-02T13:32:42.430Z,7.97
2023-02-02T13:36:37.833Z,7.18
2023-02-02T13:40:40.565Z,8.10
2023-02-02T13:44:39.011Z,15.30
2023-02-02T13:48:55.954Z,7.30
2023-02-02T13:53:07.949Z,4.65
2023-02-02T13:57:33.899Z,7.25
2023-02-02T14:01:27.483Z,4.90
2023-02-02T14:05:40.462Z,11.60
2023-02-02T14:09:37.674Z,8.95
2023-02-02T14:14:07.115Z,9.23
2023-02-02T14:17:59.715Z,8.10
2023-02-02T14:22:06.013Z,8.32
2023-02-02T14:26:08.429Z,5.28
2023-02-02T14:30:01.259Z,7.60
2023-02-02T14:34:36.914Z,7.70
2023-02-02T14:39:05.804Z,4.45
2023-02-02T14:43:28.857Z,9.20
2023-02-02T14:47:48.869Z,7.03
2023-02-02T14:51:55.480Z,7.85
2023-02-02T14:55:57.254Z,6.32
2023-02-02T14:59:51.347Z,8.93
2023-02-02T15:03:44.673Z,9.80
2023-02-02T15:07:50.559Z,11.45
2023-02-02T15:12:13.755Z,11.30
2023-02-02T15:16:15.208Z,8.73
2023-02-02T15:20:34.676Z,8.68
2023-02-02T15:24:30.506Z,6.63
2023-02-02T15:28:48.473Z,6.43
2023-02-02T15:36:37.890Z,9.55
2023-02-02T15:40:32.349Z,7.85
2023-02-02T15:44:30.038Z,4.72
2023-02-02T15:52:27.835Z,4.93
2023-02-02T15:56:23.429Z,8.07
2023-02-02T16:00:30.836Z,10.52
2023-02-02T16:04:32.651Z,7.88
2023-02-02T16:08:34.830Z,6.22
2023-02-02T16:12:27.558Z,7.03
2023-02-02T16:16:38.101Z,8.98
2023-02-02T16:20:34.173Z,8.68
2023-02-02T16:24:49.558Z,8.02
2023-02-02T16:28:42.978Z,5.65
2023-02-02T16:32:42.076Z,11.20
2023-02-02T16:36:34.863Z,5.85
2023-02-02T16:40:31.099Z,8.07
2023-02-02T16:44:46.311Z,4.70
2023-02-02T16:49:00.023Z,6.32
2023-02-02T16:53:01.159Z,7.63
2023-02-02T16:57:02.491Z,6.82
2023-02-02T17:01:12.347Z,8.68
2023-02-02T17:05:21.308Z,7.63
2023-02-02T17:09:27.019Z,10.68
2023-02-02T17:13:36.627Z,8.43
2023-02-02T17:17:30.870Z,7.93
2023-02-02T17:21:25.717Z,8.88
2023-02-02T17:25:25.392Z,8.63
2023-02-02T17:29:20.792Z,11.98
2023-02-02T17:33:18.262Z,11.85
2023-02-02T17:37:11.599Z,7.28
2023-02-02T17:41:04.772Z,8.70
2023-02-02T17:44:57.760Z,8.40
2023-02-02T17:48:50.877Z,8.80
2023-02-02T17:52:45.977Z,11.70
2023-02-02T17:56:39.318Z,7.75
2023-02-02T18:00:32.737Z,9.50
2023-02-02T18:04:27.097Z,7.43
2023-02-02T18:08:20.164Z,9.48
2023-02-02T18:12:14.670Z,7.57
2023-02-02T18:16:08.758Z,6.90
2023-02-02T18:20:01.789Z,8.70
2023-02-02T18:23:55.086Z,8.32
2023-02-02T18:27:50.931Z,6.85
2023-02-02T18:31:44.585Z,7.10
2023-02-02T18:35:46.182Z,10.82
2023-02-02T18:39:40.020Z,8.55
2023-02-02T18:43:33.668Z,7.15
2023-02-02T18:47:27.433Z,9.25
2023-02-02T18:51:22.187Z,5.47
2023-02-02T18:55:15.775Z,7.20
2023-02-02T18:59:09.324Z,11.70
2023-02-02T19:03:04.681Z,12.52
2023-02-02T19:07:16.477Z,8.68
2023-02-02T19:11:17.804Z,10.20
2023-02-02T19:15:13.920Z,9.32
2023-02-02T19:19:26.009Z,7.70
2023-02-02T19:23:25.460Z,11.95
2023-02-02T19:27:21.540Z,8.27
2023-02-02T19:31:16.811Z,6.30
2023-02-02T19:35:22.297Z,7.95
2023-02-02T19:39:19.208Z,8.55
2023-02-02T19:43:27.245Z,8.02
2023-02-02T19:47:32.953Z,8.15
2023-02-02T19:51:42.209Z,10.23
2023-02-02T19:55:37.094Z,8.50
2023-02-02T19:59:35.676Z,5.95
2023-02-02T20:03:43.365Z,9.15
2023-02-02T20:07:38.299Z,8.50
2023-02-02T20:11:38.781Z,9.82
2023-02-02T20:15:35.454Z,6.72
2023-02-02T20:19:36.219Z,5.57
2023-02-02T20:23:42.963Z,8.90
2023-02-02T20:27:38.239Z,5.63
2023-02-02T20:31:40.501Z,6.75
2023-02-02T20:35:41.795Z,7.25
2023-02-02T20:39:38.024Z,5.90
2023-02-02T20:43:31.679Z,6.70
2023-02-02T20:47:25.204Z,7.15
2023-02-02T20:51:18.503Z,5.68
2023-02-02T20:55:12.460Z,8.35
2023-02-02T20:59:07.402Z,10.02
2023-02-02T21:03:00.879Z,7.47
2023-02-02T21:06:55.602Z,7.15
2023-02-02T21:10:48.703Z,5.10
2023-02-02T21:14:42.355Z,5.43
2023-02-02T21:18:35.253Z,7.43
2023-02-02T21:22:28.065Z,5.90
2023-02-02T21:26:23.778Z,9.15
2023-02-02T21:30:16.836Z,6.50
2023-02-02T21:34:09.432Z,8.30
2023-02-02T21:38:10.499Z,5.53
2023-02-02T21:42:09.306Z,5.03
2023-02-02T21:46:03.295Z,4.55
2023-02-02T21:49:59.224Z,7.80
2023-02-02T21:53:52.314Z,5.90
2023-02-02T21:57:44.862Z,6.85
2023-02-02T22:01:40.285Z,6.70
2023-02-02T22:05:37.116Z,9.25
2023-02-02T22:09:39.673Z,6.90
2023-02-02T22:13:35.762Z,7.55
2023-02-02T22:17:49.358Z,8.43
2023-02-02T22:21:42.102Z,6.28
2023-02-02T22:25:40.235Z,6.82
2023-02-02T22:29:35.506Z,6.30
2023-02-02T22:33:28.061Z,7.35
2023-02-02T22:37:20.777Z,6.82
2023-02-02T22:41:13.398Z,7.15
2023-02-02T22:45:06.438Z,9.25
2023-02-02T22:48:58.949Z,7.28
2023-02-02T22:52:52.671Z,8.52
2023-02-02T22:56:45.206Z,7.93
2023-02-02T23:00:38.125Z,9.13
2023-02-02T23:04:30.933Z,8.82
2023-02-02T23:08:23.768Z,7.18
2023-02-02T23:12:16.902Z,6.63
2023-02-02T23:16:11.013Z,7.72
2023-02-02T23:20:07.470Z,7.80
2023-02-02T23:24:00.103Z,4.78
2023-02-02T23:27:52.762Z,4.53
2023-02-02T23:31:45.557Z,7.50
2023-02-02T23:35:38.338Z,5.25
2023-02-02T23:39:30.728Z,5.20
2023-02-02T23:43:23.845Z,5.72
2023-02-02T23:47:16.669Z,5.32
2023-02-02T23:51:09.770Z,8.13
2023-02-02T23:55:03.217Z,4.85
2023-02-02T23:58:56.321Z,5.60
